sensor_id;sensor_type;location;lat;lon;timestamp;P1;durP1;ratioP1;P2;durP2;ratioP2
78670;SDS011;68277;52.724;6.516;2023-05-10T00:01:52;7.50;;;5.00;;
78670;SDS011;68277;52.724;6.516;2023-05-10T00:04:17;10.30;;;5.90;;
78670;SDS011;68277;52.724;6.516;2023-05-10T00:06:43;9.88;;;5.63;;
78670;SDS011;68277;52.724;6.516;2023-05-10T00:09:08;10.52;;;5.30;;
78670;SDS011;68277;52.724;6.516;2023-05-10T00:11:33;10.32;;;5.30;;
78670;SDS011;68277;52.724;6.516;2023-05-10T00:13:59;11.73;;;6.45;;
78670;SDS011;68277;52.724;6.516;2023-05-10T00:16:24;11.45;;;5.93;;
78670;SDS011;68277;52.724;6.516;2023-05-10T00:18:50;14.20;;;6.68;;
78670;SDS011;68277;52.724;6.516;2023-05-10T00:21:15;8.45;;;5.25;;
78670;SDS011;68277;52.724;6.516;2023-05-10T00:23:41;9.95;;;5.68;;
78670;SDS011;68277;52.724;6.516;2023-05-10T00:26:06;12.45;;;5.97;;
78670;SDS011;68277;52.724;6.516;2023-05-10T00:28:32;13.43;;;7.05;;
78670;SDS011;68277;52.724;6.516;2023-05-10T00:30:57;15.30;;;6.75;;
78670;SDS011;68277;52.724;6.516;2023-05-10T00:33:23;12.63;;;6.22;;
78670;SDS011;68277;52.724;6.516;2023-05-10T00:35:48;11.68;;;6.13;;
78670;SDS011;68277;52.724;6.516;2023-05-10T00:38:14;12.95;;;6.65;;
78670;SDS011;68277;52.724;6.516;2023-05-10T00:40:40;8.82;;;5.07;;
78670;SDS011;68277;52.724;6.516;2023-05-10T00:43:12;12.02;;;6.07;;
78670;SDS011;68277;52.724;6.516;2023-05-10T00:45:37;10.07;;;5.57;;
78670;SDS011;68277;52.724;6.516;2023-05-10T00:48:06;9.57;;;4.88;;
78670;SDS011;68277;52.724;6.516;2023-05-10T00:50:32;13.65;;;6.20;;
78670;SDS011;68277;52.724;6.516;2023-05-10T00:52:58;12.18;;;6.75;;
78670;SDS011;68277;52.724;6.516;2023-05-10T00:55:25;13.35;;;6.72;;
78670;SDS011;68277;52.724;6.516;2023-05-10T00:57:52;14.65;;;6.10;;
78670;SDS011;68277;52.724;6.516;2023-05-10T01:00:18;12.30;;;5.63;;
78670;SDS011;68277;52.724;6.516;2023-05-10T01:02:45;13.18;;;6.38;;
78670;SDS011;68277;52.724;6.516;2023-05-10T01:07:37;11.07;;;5.22;;
78670;SDS011;68277;52.724;6.516;2023-05-10T01:10:03;10.93;;;5.45;;
78670;SDS011;68277;52.724;6.516;2023-05-10T01:12:30;9.63;;;4.55;;
78670;SDS011;68277;52.724;6.516;2023-05-10T01:14:55;8.48;;;4.30;;
78670;SDS011;68277;52.724;6.516;2023-05-10T01:17:21;11.98;;;5.50;;
78670;SDS011;68277;52.724;6.516;2023-05-10T01:22:33;8.80;;;4.13;;
78670;SDS011;68277;52.724;6.516;2023-05-10T01:25:42;9.05;;;5.05;;
78670;SDS011;68277;52.724;6.516;2023-05-10T01:28:23;10.77;;;5.47;;
78670;SDS011;68277;52.724;6.516;2023-05-10T01:31:03;10.70;;;4.00;;
78670;SDS011;68277;52.724;6.516;2023-05-10T01:39:24;7.63;;;3.75;;
78670;SDS011;68277;52.724;6.516;2023-05-10T01:42:08;6.60;;;3.53;;
78670;SDS011;68277;52.724;6.516;2023-05-10T01:47:43;7.05;;;3.40;;
78670;SDS011;68277;52.724;6.516;2023-05-10T01:50:17;5.68;;;2.42;;
78670;SDS011;68277;52.724;6.516;2023-05-10T01:52:49;6.72;;;2.78;;
78670;SDS011;68277;52.724;6.516;2023-05-10T01:55:20;6.53;;;3.35;;
78670;SDS011;68277;52.724;6.516;2023-05-10T01:57:50;7.10;;;3.42;;
78670;SDS011;68277;52.724;6.516;2023-05-10T02:00:21;6.95;;;3.60;;
78670;SDS011;68277;52.724;6.516;2023-05-10T02:02:50;5.78;;;3.40;;
78670;SDS011;68277;52.724;6.516;2023-05-10T02:05:17;7.38;;;3.63;;
78670;SDS011;68277;52.724;6.516;2023-05-10T02:07:44;4.68;;;2.75;;
78670;SDS011;68277;52.724;6.516;2023-05-10T02:10:11;6.40;;;3.45;;
78670;SDS011;68277;52.724;6.516;2023-05-10T02:12:39;6.50;;;3.17;;
78670;SDS011;68277;52.724;6.516;2023-05-10T02:15:15;6.75;;;2.85;;
78670;SDS011;68277;52.724;6.516;2023-05-10T02:17:44;6.88;;;3.22;;
78670;SDS011;68277;52.724;6.516;2023-05-10T02:20:11;7.13;;;3.50;;
78670;SDS011;68277;52.724;6.516;2023-05-10T02:22:39;5.90;;;3.08;;
78670;SDS011;68277;52.724;6.516;2023-05-10T02:25:06;4.93;;;3.03;;
78670;SDS011;68277;52.724;6.516;2023-05-10T02:27:34;5.10;;;2.90;;
78670;SDS011;68277;52.724;6.516;2023-05-10T02:30:01;6.57;;;3.03;;
78670;SDS011;68277;52.724;6.516;2023-05-10T02:32:27;6.53;;;2.85;;
78670;SDS011;68277;52.724;6.516;2023-05-10T02:34:55;4.88;;;2.10;;
78670;SDS011;68277;52.724;6.516;2023-05-10T02:37:22;5.18;;;2.80;;
78670;SDS011;68277;52.724;6.516;2023-05-10T02:39:50;6.22;;;3.13;;
78670;SDS011;68277;52.724;6.516;2023-05-10T02:42:23;6.07;;;3.88;;
78670;SDS011;68277;52.724;6.516;2023-05-10T02:44:52;5.57;;;2.78;;
78670;SDS011;68277;52.724;6.516;2023-05-10T02:47:19;8.43;;;3.78;;
78670;SDS011;68277;52.724;6.516;2023-05-10T02:49:45;7.97;;;3.35;;
78670;SDS011;68277;52.724;6.516;2023-05-10T02:52:16;6.65;;;3.15;;
78670;SDS011;68277;52.724;6.516;2023-05-10T02:54:47;8.13;;;3.95;;
78670;SDS011;68277;52.724;6.516;2023-05-10T02:57:16;8.38;;;3.60;;
78670;SDS011;68277;52.724;6.516;2023-05-10T02:59:48;7.15;;;2.90;;
78670;SDS011;68277;52.724;6.516;2023-05-10T03:02:14;6.35;;;3.10;;
78670;SDS011;68277;52.724;6.516;2023-05-10T03:04:40;7.30;;;4.10;;
78670;SDS011;68277;52.724;6.516;2023-05-10T03:07:07;6.00;;;3.35;;
78670;SDS011;68277;52.724;6.516;2023-05-10T03:14:53;7.35;;;4.25;;
78670;SDS011;68277;52.724;6.516;2023-05-10T03:20:22;11.02;;;3.80;;
78670;SDS011;68277;52.724;6.516;2023-05-10T03:22:53;10.90;;;4.32;;
78670;SDS011;68277;52.724;6.516;2023-05-10T03:25:25;5.63;;;3.15;;
78670;SDS011;68277;52.724;6.516;2023-05-10T03:27:52;10.88;;;4.35;;
78670;SDS011;68277;52.724;6.516;2023-05-10T03:32:45;7.53;;;4.30;;
78670;SDS011;68277;52.724;6.516;2023-05-10T03:35:12;8.63;;;3.35;;
78670;SDS011;68277;52.724;6.516;2023-05-10T03:37:42;7.05;;;3.72;;
78670;SDS011;68277;52.724;6.516;2023-05-10T03:40:08;11.77;;;4.68;;
78670;SDS011;68277;52.724;6.516;2023-05-10T03:42:36;9.77;;;4.43;;
78670;SDS011;68277;52.724;6.516;2023-05-10T03:45:02;8.93;;;4.85;;
78670;SDS011;68277;52.724;6.516;2023-05-10T03:47:27;9.05;;;4.20;;
78670;SDS011;68277;52.724;6.516;2023-05-10T03:49:54;9.40;;;4.28;;
78670;SDS011;68277;52.724;6.516;2023-05-10T03:52:20;7.85;;;3.58;;
78670;SDS011;68277;52.724;6.516;2023-05-10T03:54:46;7.43;;;3.85;;
78670;SDS011;68277;52.724;6.516;2023-05-10T03:57:12;8.50;;;4.13;;
78670;SDS011;68277;52.724;6.516;2023-05-10T03:59:38;7.68;;;3.35;;
78670;SDS011;68277;52.724;6.516;2023-05-10T04:02:03;6.60;;;3.80;;
78670;SDS011;68277;52.724;6.516;2023-05-10T04:04:29;8.63;;;4.95;;
78670;SDS011;68277;52.724;6.516;2023-05-10T04:06:54;7.10;;;3.70;;
78670;SDS011;68277;52.724;6.516;2023-05-10T04:09:20;9.25;;;4.10;;
78670;SDS011;68277;52.724;6.516;2023-05-10T04:11:45;6.97;;;3.95;;
78670;SDS011;68277;52.724;6.516;2023-05-10T04:14:11;8.60;;;4.05;;
78670;SDS011;68277;52.724;6.516;2023-05-10T04:16:36;13.15;;;5.53;;
78670;SDS011;68277;52.724;6.516;2023-05-10T04:19:01;10.00;;;5.00;;
78670;SDS011;68277;52.724;6.516;2023-05-10T04:21:27;11.65;;;5.15;;
78670;SDS011;68277;52.724;6.516;2023-05-10T04:23:52;8.27;;;4.82;;
78670;SDS011;68277;52.724;6.516;2023-05-10T04:26:18;11.60;;;5.30;;
78670;SDS011;68277;52.724;6.516;2023-05-10T04:28:43;9.52;;;4.20;;
78670;SDS011;68277;52.724;6.516;2023-05-10T04:31:09;10.68;;;5.00;;
78670;SDS011;68277;52.724;6.516;2023-05-10T04:33:35;7.35;;;3.83;;
78670;SDS011;68277;52.724;6.516;2023-05-10T04:36:01;8.80;;;3.95;;
78670;SDS011;68277;52.724;6.516;2023-05-10T04:38:27;8.88;;;4.13;;
78670;SDS011;68277;52.724;6.516;2023-05-10T04:40:53;6.68;;;3.38;;
78670;SDS011;68277;52.724;6.516;2023-05-10T04:43:18;6.43;;;3.83;;
78670;SDS011;68277;52.724;6.516;2023-05-10T04:45:44;6.43;;;2.78;;
78670;SDS011;68277;52.724;6.516;2023-05-10T04:48:10;9.02;;;4.15;;
78670;SDS011;68277;52.724;6.516;2023-05-10T04:50:35;9.43;;;5.05;;
78670;SDS011;68277;52.724;6.516;2023-05-10T04:53:01;8.35;;;3.75;;
78670;SDS011;68277;52.724;6.516;2023-05-10T04:55:27;9.73;;;3.80;;
78670;SDS011;68277;52.724;6.516;2023-05-10T04:57:52;7.18;;;3.95;;
78670;SDS011;68277;52.724;6.516;2023-05-10T05:00:20;9.82;;;4.18;;
78670;SDS011;68277;52.724;6.516;2023-05-10T05:02:47;8.23;;;3.88;;
78670;SDS011;68277;52.724;6.516;2023-05-10T05:05:13;7.78;;;3.92;;
78670;SDS011;68277;52.724;6.516;2023-05-10T05:07:39;7.10;;;3.47;;
78670;SDS011;68277;52.724;6.516;2023-05-10T05:10:07;7.00;;;3.80;;
78670;SDS011;68277;52.724;6.516;2023-05-10T05:12:33;7.30;;;4.03;;
78670;SDS011;68277;52.724;6.516;2023-05-10T05:15:02;6.63;;;3.08;;
78670;SDS011;68277;52.724;6.516;2023-05-10T05:17:29;8.43;;;3.95;;
78670;SDS011;68277;52.724;6.516;2023-05-10T05:19:56;8.95;;;3.53;;
78670;SDS011;68277;52.724;6.516;2023-05-10T05:22:21;9.00;;;3.80;;
78670;SDS011;68277;52.724;6.516;2023-05-10T05:24:53;8.85;;;3.50;;
78670;SDS011;68277;52.724;6.516;2023-05-10T05:27:19;6.97;;;2.83;;
78670;SDS011;68277;52.724;6.516;2023-05-10T05:29:55;9.00;;;3.97;;
78670;SDS011;68277;52.724;6.516;2023-05-10T05:32:21;9.05;;;4.20;;
78670;SDS011;68277;52.724;6.516;2023-05-10T05:34:47;8.45;;;4.25;;
78670;SDS011;68277;52.724;6.516;2023-05-10T05:37:13;8.77;;;4.35;;
78670;SDS011;68277;52.724;6.516;2023-05-10T05:42:05;8.38;;;3.63;;
78670;SDS011;68277;52.724;6.516;2023-05-10T05:44:30;9.02;;;3.75;;
78670;SDS011;68277;52.724;6.516;2023-05-10T05:46:56;8.32;;;3.47;;
78670;SDS011;68277;52.724;6.516;2023-05-10T05:49:21;9.35;;;3.45;;
78670;SDS011;68277;52.724;6.516;2023-05-10T05:51:46;7.18;;;3.65;;
78670;SDS011;68277;52.724;6.516;2023-05-10T05:54:14;10.50;;;4.70;;
78670;SDS011;68277;52.724;6.516;2023-05-10T05:56:41;12.50;;;5.32;;
78670;SDS011;68277;52.724;6.516;2023-05-10T05:59:07;10.18;;;4.47;;
78670;SDS011;68277;52.724;6.516;2023-05-10T06:01:33;11.50;;;5.35;;
78670;SDS011;68277;52.724;6.516;2023-05-10T06:03:58;10.00;;;4.07;;
78670;SDS011;68277;52.724;6.516;2023-05-10T06:06:24;8.38;;;3.50;;
78670;SDS011;68277;52.724;6.516;2023-05-10T06:08:49;8.55;;;3.88;;
78670;SDS011;68277;52.724;6.516;2023-05-10T06:11:15;10.05;;;5.40;;
78670;SDS011;68277;52.724;6.516;2023-05-10T06:13:40;9.80;;;4.53;;
78670;SDS011;68277;52.724;6.516;2023-05-10T06:16:07;13.43;;;5.10;;
78670;SDS011;68277;52.724;6.516;2023-05-10T06:18:32;10.10;;;3.90;;
78670;SDS011;68277;52.724;6.516;2023-05-10T06:20:58;7.72;;;3.25;;
78670;SDS011;68277;52.724;6.516;2023-05-10T06:23:23;8.98;;;3.72;;
78670;SDS011;68277;52.724;6.516;2023-05-10T06:25:50;13.88;;;4.65;;
78670;SDS011;68277;52.724;6.516;2023-05-10T06:28:16;10.10;;;4.32;;
78670;SDS011;68277;52.724;6.516;2023-05-10T06:30:41;11.68;;;3.88;;
78670;SDS011;68277;52.724;6.516;2023-05-10T06:33:07;10.00;;;4.13;;
78670;SDS011;68277;52.724;6.516;2023-05-10T06:35:33;5.75;;;3.45;;
78670;SDS011;68277;52.724;6.516;2023-05-10T06:37:59;7.80;;;3.90;;
78670;SDS011;68277;52.724;6.516;2023-05-10T06:40:24;11.35;;;3.83;;
78670;SDS011;68277;52.724;6.516;2023-05-10T06:42:50;11.77;;;4.00;;
78670;SDS011;68277;52.724;6.516;2023-05-10T06:45:16;10.85;;;4.32;;
78670;SDS011;68277;52.724;6.516;2023-05-10T06:47:42;13.43;;;3.90;;
78670;SDS011;68277;52.724;6.516;2023-05-10T06:50:08;5.65;;;3.10;;
78670;SDS011;68277;52.724;6.516;2023-05-10T06:54:59;12.43;;;3.90;;
78670;SDS011;68277;52.724;6.516;2023-05-10T06:57:25;4.85;;;2.60;;
78670;SDS011;68277;52.724;6.516;2023-05-10T06:59:51;10.18;;;3.53;;
78670;SDS011;68277;52.724;6.516;2023-05-10T07:02:17;8.10;;;3.78;;
78670;SDS011;68277;52.724;6.516;2023-05-10T07:04:42;6.85;;;3.42;;
78670;SDS011;68277;52.724;6.516;2023-05-10T07:07:08;5.03;;;2.58;;
78670;SDS011;68277;52.724;6.516;2023-05-10T07:09:33;6.30;;;3.40;;
78670;SDS011;68277;52.724;6.516;2023-05-10T07:11:59;8.23;;;2.90;;
78670;SDS011;68277;52.724;6.516;2023-05-10T07:14:25;8.18;;;3.85;;
78670;SDS011;68277;52.724;6.516;2023-05-10T07:16:50;6.63;;;3.85;;
78670;SDS011;68277;52.724;6.516;2023-05-10T07:19:15;7.68;;;3.55;;
78670;SDS011;68277;52.724;6.516;2023-05-10T07:21:41;9.65;;;3.10;;
78670;SDS011;68277;52.724;6.516;2023-05-10T07:24:08;4.60;;;3.28;;
78670;SDS011;68277;52.724;6.516;2023-05-10T07:26:34;6.60;;;3.00;;
78670;SDS011;68277;52.724;6.516;2023-05-10T07:28:59;11.82;;;3.47;;
78670;SDS011;68277;52.724;6.516;2023-05-10T07:31:25;7.07;;;2.75;;
78670;SDS011;68277;52.724;6.516;2023-05-10T07:33:50;6.88;;;3.08;;
78670;SDS011;68277;52.724;6.516;2023-05-10T07:36:15;7.88;;;3.35;;
78670;SDS011;68277;52.724;6.516;2023-05-10T07:38:41;8.07;;;3.42;;
78670;SDS011;68277;52.724;6.516;2023-05-10T07:41:07;6.57;;;3.20;;
78670;SDS011;68277;52.724;6.516;2023-05-10T07:43:32;4.97;;;2.67;;
78670;SDS011;68277;52.724;6.516;2023-05-10T07:45:57;7.07;;;2.63;;
78670;SDS011;68277;52.724;6.516;2023-05-10T07:48:24;4.93;;;2.83;;
78670;SDS011;68277;52.724;6.516;2023-05-10T07:50:50;6.20;;;3.25;;
78670;SDS011;68277;52.724;6.516;2023-05-10T07:53:16;5.05;;;2.42;;
78670;SDS011;68277;52.724;6.516;2023-05-10T07:55:41;5.22;;;2.63;;
78670;SDS011;68277;52.724;6.516;2023-05-10T07:58:07;6.80;;;2.47;;
78670;SDS011;68277;52.724;6.516;2023-05-10T08:00:33;4.72;;;2.05;;
78670;SDS011;68277;52.724;6.516;2023-05-10T08:02:59;3.72;;;1.75;;
78670;SDS011;68277;52.724;6.516;2023-05-10T08:05:24;4.88;;;2.08;;
78670;SDS011;68277;52.724;6.516;2023-05-10T08:07:50;6.75;;;2.20;;
78670;SDS011;68277;52.724;6.516;2023-05-10T08:10:15;4.63;;;1.60;;
78670;SDS011;68277;52.724;6.516;2023-05-10T08:12:41;3.70;;;1.95;;
78670;SDS011;68277;52.724;6.516;2023-05-10T08:15:07;4.45;;;1.85;;
78670;SDS011;68277;52.724;6.516;2023-05-10T08:17:33;7.30;;;2.00;;
78670;SDS011;68277;52.724;6.516;2023-05-10T08:20:00;3.63;;;1.92;;
78670;SDS011;68277;52.724;6.516;2023-05-10T08:22:26;5.30;;;2.08;;
78670;SDS011;68277;52.724;6.516;2023-05-10T08:24:52;3.63;;;1.60;;
78670;SDS011;68277;52.724;6.516;2023-05-10T08:27:17;2.60;;;1.40;;
78670;SDS011;68277;52.724;6.516;2023-05-10T08:29:44;5.70;;;1.75;;
78670;SDS011;68277;52.724;6.516;2023-05-10T08:34:35;3.30;;;1.50;;
78670;SDS011;68277;52.724;6.516;2023-05-10T08:37:00;3.40;;;2.08;;
78670;SDS011;68277;52.724;6.516;2023-05-10T08:39:26;4.85;;;1.60;;
78670;SDS011;68277;52.724;6.516;2023-05-10T08:41:52;3.92;;;1.58;;
78670;SDS011;68277;52.724;6.516;2023-05-10T08:44:22;4.03;;;1.70;;
78670;SDS011;68277;52.724;6.516;2023-05-10T08:46:51;3.72;;;1.42;;
78670;SDS011;68277;52.724;6.516;2023-05-10T08:49:19;4.95;;;2.40;;
78670;SDS011;68277;52.724;6.516;2023-05-10T08:51:47;3.17;;;1.60;;
78670;SDS011;68277;52.724;6.516;2023-05-10T08:54:16;4.45;;;2.13;;
78670;SDS011;68277;52.724;6.516;2023-05-10T08:56:42;3.35;;;1.92;;
78670;SDS011;68277;52.724;6.516;2023-05-10T08:59:09;3.85;;;2.17;;
78670;SDS011;68277;52.724;6.516;2023-05-10T09:04:00;3.55;;;1.88;;
78670;SDS011;68277;52.724;6.516;2023-05-10T09:06:26;3.20;;;1.80;;
78670;SDS011;68277;52.724;6.516;2023-05-10T09:08:51;4.30;;;2.20;;
78670;SDS011;68277;52.724;6.516;2023-05-10T09:11:17;3.13;;;1.90;;
78670;SDS011;68277;52.724;6.516;2023-05-10T09:13:45;3.20;;;1.77;;
78670;SDS011;68277;52.724;6.516;2023-05-10T09:16:12;3.67;;;2.17;;
78670;SDS011;68277;52.724;6.516;2023-05-10T09:18:37;5.10;;;2.22;;
78670;SDS011;68277;52.724;6.516;2023-05-10T09:21:03;4.95;;;1.92;;
78670;SDS011;68277;52.724;6.516;2023-05-10T09:23:28;6.65;;;1.85;;
78670;SDS011;68277;52.724;6.516;2023-05-10T09:26:06;4.85;;;2.10;;
78670;SDS011;68277;52.724;6.516;2023-05-10T09:28:33;5.22;;;2.47;;
78670;SDS011;68277;52.724;6.516;2023-05-10T09:31:17;4.18;;;2.13;;
78670;SDS011;68277;52.724;6.516;2023-05-10T09:33:43;3.85;;;2.25;;
78670;SDS011;68277;52.724;6.516;2023-05-10T09:36:09;4.78;;;2.53;;
78670;SDS011;68277;52.724;6.516;2023-05-10T09:38:48;6.45;;;3.35;;
78670;SDS011;68277;52.724;6.516;2023-05-10T09:41:15;7.63;;;3.13;;
78670;SDS011;68277;52.724;6.516;2023-05-10T09:43:48;5.07;;;2.47;;
78670;SDS011;68277;52.724;6.516;2023-05-10T09:46:15;6.38;;;2.80;;
78670;SDS011;68277;52.724;6.516;2023-05-10T09:48:42;8.85;;;4.50;;
78670;SDS011;68277;52.724;6.516;2023-05-10T09:51:09;7.30;;;3.60;;
78670;SDS011;68277;52.724;6.516;2023-05-10T09:53:44;5.88;;;3.15;;
78670;SDS011;68277;52.724;6.516;2023-05-10T09:56:09;5.13;;;2.72;;
78670;SDS011;68277;52.724;6.516;2023-05-10T09:58:36;6.43;;;2.88;;
78670;SDS011;68277;52.724;6.516;2023-05-10T10:01:03;4.75;;;2.47;;
78670;SDS011;68277;52.724;6.516;2023-05-10T10:03:28;6.60;;;2.80;;
78670;SDS011;68277;52.724;6.516;2023-05-10T10:05:55;4.90;;;2.95;;
78670;SDS011;68277;52.724;6.516;2023-05-10T10:08:21;6.88;;;3.17;;
78670;SDS011;68277;52.724;6.516;2023-05-10T10:10:47;8.88;;;3.20;;
78670;SDS011;68277;52.724;6.516;2023-05-10T10:13:12;7.15;;;3.08;;
78670;SDS011;68277;52.724;6.516;2023-05-10T10:15:38;7.93;;;3.78;;
78670;SDS011;68277;52.724;6.516;2023-05-10T10:18:04;8.50;;;3.80;;
78670;SDS011;68277;52.724;6.516;2023-05-10T10:20:30;8.35;;;3.55;;
78670;SDS011;68277;52.724;6.516;2023-05-10T10:22:56;6.57;;;3.22;;
78670;SDS011;68277;52.724;6.516;2023-05-10T10:25:22;6.10;;;3.60;;
78670;SDS011;68277;52.724;6.516;2023-05-10T10:35:32;8.82;;;4.10;;
78670;SDS011;68277;52.724;6.516;2023-05-10T10:40:32;6.25;;;2.90;;
78670;SDS011;68277;52.724;6.516;2023-05-10T10:43:21;7.70;;;4.10;;
78670;SDS011;68277;52.724;6.516;2023-05-10T10:46:09;8.35;;;4.68;;
78670;SDS011;68277;52.724;6.516;2023-05-10T10:48:46;8.55;;;3.83;;
78670;SDS011;68277;52.724;6.516;2023-05-10T10:51:13;9.90;;;4.18;;
78670;SDS011;68277;52.724;6.516;2023-05-10T10:53:40;5.25;;;2.70;;
78670;SDS011;68277;52.724;6.516;2023-05-10T10:58:36;7.00;;;3.50;;
78670;SDS011;68277;52.724;6.516;2023-05-10T11:01:10;9.10;;;4.22;;
78670;SDS011;68277;52.724;6.516;2023-05-10T11:03:37;8.30;;;4.28;;
78670;SDS011;68277;52.724;6.516;2023-05-10T11:06:05;6.47;;;3.97;;
78670;SDS011;68277;52.724;6.516;2023-05-10T11:08:31;10.48;;;3.63;;
78670;SDS011;68277;52.724;6.516;2023-05-10T11:13:43;7.28;;;3.17;;
78670;SDS011;68277;52.724;6.516;2023-05-10T11:16:10;6.10;;;3.33;;
78670;SDS011;68277;52.724;6.516;2023-05-10T11:18:53;6.53;;;3.00;;
78670;SDS011;68277;52.724;6.516;2023-05-10T11:21:21;9.23;;;3.97;;
78670;SDS011;68277;52.724;6.516;2023-05-10T11:23:48;5.03;;;2.17;;
78670;SDS011;68277;52.724;6.516;2023-05-10T11:26:15;5.70;;;2.92;;
78670;SDS011;68277;52.724;6.516;2023-05-10T11:28:42;6.22;;;3.22;;
78670;SDS011;68277;52.724;6.516;2023-05-10T11:31:08;8.30;;;3.70;;
78670;SDS011;68277;52.724;6.516;2023-05-10T11:33:43;7.35;;;3.85;;
78670;SDS011;68277;52.724;6.516;2023-05-10T11:36:29;4.45;;;2.25;;
78670;SDS011;68277;52.724;6.516;2023-05-10T11:38:58;5.40;;;3.20;;
78670;SDS011;68277;52.724;6.516;2023-05-10T11:41:24;6.80;;;3.08;;
78670;SDS011;68277;52.724;6.516;2023-05-10T11:43:50;6.55;;;3.40;;
78670;SDS011;68277;52.724;6.516;2023-05-10T11:46:20;9.10;;;4.15;;
78670;SDS011;68277;52.724;6.516;2023-05-10T11:48:48;6.07;;;3.25;;
78670;SDS011;68277;52.724;6.516;2023-05-10T11:51:19;7.88;;;3.80;;
78670;SDS011;68277;52.724;6.516;2023-05-10T11:53:46;11.20;;;4.65;;
78670;SDS011;68277;52.724;6.516;2023-05-10T11:56:12;9.05;;;4.65;;
78670;SDS011;68277;52.724;6.516;2023-05-10T11:58:37;7.03;;;3.53;;
78670;SDS011;68277;52.724;6.516;2023-05-10T12:01:05;5.03;;;3.22;;
78670;SDS011;68277;52.724;6.516;2023-05-10T12:03:32;8.63;;;3.95;;
78670;SDS011;68277;52.724;6.516;2023-05-10T12:05:58;8.13;;;3.78;;
78670;SDS011;68277;52.724;6.516;2023-05-10T12:08:26;7.40;;;3.47;;
78670;SDS011;68277;52.724;6.516;2023-05-10T12:10:53;6.57;;;3.38;;
78670;SDS011;68277;52.724;6.516;2023-05-10T12:13:29;6.97;;;3.55;;
78670;SDS011;68277;52.724;6.516;2023-05-10T12:15:57;8.10;;;3.38;;
78670;SDS011;68277;52.724;6.516;2023-05-10T12:18:23;6.07;;;3.20;;
78670;SDS011;68277;52.724;6.516;2023-05-10T12:20:52;6.22;;;3.00;;
78670;SDS011;68277;52.724;6.516;2023-05-10T12:23:21;7.70;;;2.75;;
78670;SDS011;68277;52.724;6.516;2023-05-10T12:25:46;3.22;;;2.00;;
78670;SDS011;68277;52.724;6.516;2023-05-10T12:28:12;5.93;;;2.70;;
78670;SDS011;68277;52.724;6.516;2023-05-10T12:30:37;6.32;;;2.40;;
78670;SDS011;68277;52.724;6.516;2023-05-10T12:33:08;4.93;;;2.55;;
78670;SDS011;68277;52.724;6.516;2023-05-10T12:41:17;6.60;;;2.33;;
78670;SDS011;68277;52.724;6.516;2023-05-10T12:43:42;5.82;;;2.63;;
78670;SDS011;68277;52.724;6.516;2023-05-10T12:46:11;6.15;;;2.65;;
78670;SDS011;68277;52.724;6.516;2023-05-10T12:48:38;5.38;;;3.08;;
78670;SDS011;68277;52.724;6.516;2023-05-10T12:51:05;6.63;;;2.92;;
78670;SDS011;68277;52.724;6.516;2023-05-10T12:53:35;7.53;;;4.20;;
78670;SDS011;68277;52.724;6.516;2023-05-10T12:58:26;5.88;;;2.63;;
78670;SDS011;68277;52.724;6.516;2023-05-10T13:00:53;7.65;;;3.13;;
78670;SDS011;68277;52.724;6.516;2023-05-10T13:03:21;6.65;;;3.33;;
78670;SDS011;68277;52.724;6.516;2023-05-10T13:05:47;7.28;;;2.80;;
78670;SDS011;68277;52.724;6.516;2023-05-10T13:08:12;8.20;;;3.25;;
78670;SDS011;68277;52.724;6.516;2023-05-10T13:10:38;6.30;;;3.72;;
78670;SDS011;68277;52.724;6.516;2023-05-10T13:13:04;9.38;;;4.22;;
78670;SDS011;68277;52.724;6.516;2023-05-10T13:15:30;8.35;;;3.60;;
78670;SDS011;68277;52.724;6.516;2023-05-10T13:17:56;6.53;;;2.83;;
78670;SDS011;68277;52.724;6.516;2023-05-10T13:20:21;3.90;;;2.45;;
78670;SDS011;68277;52.724;6.516;2023-05-10T13:22:48;7.22;;;3.58;;
78670;SDS011;68277;52.724;6.516;2023-05-10T13:25:13;9.55;;;3.47;;
78670;SDS011;68277;52.724;6.516;2023-05-10T13:27:39;7.60;;;2.72;;
78670;SDS011;68277;52.724;6.516;2023-05-10T13:30:06;5.97;;;2.63;;
78670;SDS011;68277;52.724;6.516;2023-05-10T13:32:32;5.15;;;2.70;;
78670;SDS011;68277;52.724;6.516;2023-05-10T13:35:02;4.70;;;2.38;;
78670;SDS011;68277;52.724;6.516;2023-05-10T13:37:28;6.78;;;2.80;;
78670;SDS011;68277;52.724;6.516;2023-05-10T13:39:54;5.95;;;2.88;;
78670;SDS011;68277;52.724;6.516;2023-05-10T13:42:21;4.40;;;1.77;;
78670;SDS011;68277;52.724;6.516;2023-05-10T13:44:47;4.93;;;2.28;;
78670;SDS011;68277;52.724;6.516;2023-05-10T13:47:13;5.47;;;2.45;;
78670;SDS011;68277;52.724;6.516;2023-05-10T13:49:38;3.72;;;2.20;;
78670;SDS011;68277;52.724;6.516;2023-05-10T13:52:03;5.70;;;2.58;;
78670;SDS011;68277;52.724;6.516;2023-05-10T13:54:34;4.03;;;1.90;;
78670;SDS011;68277;52.724;6.516;2023-05-10T13:57:00;5.32;;;2.58;;
78670;SDS011;68277;52.724;6.516;2023-05-10T13:59:26;4.25;;;1.83;;
78670;SDS011;68277;52.724;6.516;2023-05-10T14:01:51;6.10;;;3.08;;
78670;SDS011;68277;52.724;6.516;2023-05-10T14:04:17;6.93;;;4.03;;
78670;SDS011;68277;52.724;6.516;2023-05-10T14:06:42;4.40;;;2.30;;
78670;SDS011;68277;52.724;6.516;2023-05-10T14:09:11;6.50;;;3.58;;
78670;SDS011;68277;52.724;6.516;2023-05-10T14:11:36;4.82;;;2.75;;
78670;SDS011;68277;52.724;6.516;2023-05-10T14:14:01;8.80;;;4.18;;
78670;SDS011;68277;52.724;6.516;2023-05-10T14:16:27;5.88;;;3.13;;
78670;SDS011;68277;52.724;6.516;2023-05-10T14:18:53;7.32;;;3.15;;
78670;SDS011;68277;52.724;6.516;2023-05-10T14:21:18;8.90;;;3.17;;
78670;SDS011;68277;52.724;6.516;2023-05-10T14:23:44;7.30;;;3.05;;
78670;SDS011;68277;52.724;6.516;2023-05-10T14:26:09;6.15;;;3.20;;
78670;SDS011;68277;52.724;6.516;2023-05-10T14:28:35;5.75;;;3.08;;
78670;SDS011;68277;52.724;6.516;2023-05-10T14:31:03;7.25;;;2.78;;
78670;SDS011;68277;52.724;6.516;2023-05-10T14:33:28;12.18;;;5.15;;
78670;SDS011;68277;52.724;6.516;2023-05-10T14:35:54;11.50;;;4.57;;
78670;SDS011;68277;52.724;6.516;2023-05-10T14:38:21;8.05;;;3.60;;
78670;SDS011;68277;52.724;6.516;2023-05-10T14:40:47;12.23;;;4.05;;
78670;SDS011;68277;52.724;6.516;2023-05-10T14:43:12;11.35;;;4.10;;
78670;SDS011;68277;52.724;6.516;2023-05-10T14:45:38;9.85;;;4.40;;
78670;SDS011;68277;52.724;6.516;2023-05-10T14:48:03;9.40;;;3.95;;
78670;SDS011;68277;52.724;6.516;2023-05-10T14:50:30;7.20;;;2.85;;
78670;SDS011;68277;52.724;6.516;2023-05-10T14:52:56;7.18;;;3.95;;
78670;SDS011;68277;52.724;6.516;2023-05-10T14:55:22;7.18;;;3.17;;
78670;SDS011;68277;52.724;6.516;2023-05-10T14:57:47;5.88;;;3.28;;
78670;SDS011;68277;52.724;6.516;2023-05-10T15:00:14;7.95;;;3.70;;
78670;SDS011;68277;52.724;6.516;2023-05-10T15:02:40;10.57;;;5.07;;
78670;SDS011;68277;52.724;6.516;2023-05-10T15:05:06;8.25;;;4.28;;
78670;SDS011;68277;52.724;6.516;2023-05-10T15:07:32;8.60;;;3.95;;
78670;SDS011;68277;52.724;6.516;2023-05-10T15:09:57;7.03;;;3.35;;
78670;SDS011;68277;52.724;6.516;2023-05-10T15:12:23;6.97;;;3.80;;
78670;SDS011;68277;52.724;6.516;2023-05-10T15:14:48;8.57;;;3.72;;
78670;SDS011;68277;52.724;6.516;2023-05-10T15:17:13;7.53;;;3.42;;
78670;SDS011;68277;52.724;6.516;2023-05-10T15:19:39;14.80;;;6.43;;
78670;SDS011;68277;52.724;6.516;2023-05-10T15:22:05;8.13;;;3.28;;
78670;SDS011;68277;52.724;6.516;2023-05-10T15:24:30;8.93;;;3.42;;
78670;SDS011;68277;52.724;6.516;2023-05-10T15:26:56;8.50;;;3.28;;
78670;SDS011;68277;52.724;6.516;2023-05-10T15:29:22;4.55;;;2.45;;
78670;SDS011;68277;52.724;6.516;2023-05-10T15:31:47;12.00;;;5.07;;
78670;SDS011;68277;52.724;6.516;2023-05-10T15:34:14;6.50;;;4.13;;
78670;SDS011;68277;52.724;6.516;2023-05-10T15:36:40;6.47;;;3.50;;
78670;SDS011;68277;52.724;6.516;2023-05-10T15:39:06;7.68;;;3.55;;
78670;SDS011;68277;52.724;6.516;2023-05-10T15:41:31;6.55;;;3.28;;
78670;SDS011;68277;52.724;6.516;2023-05-10T15:43:57;7.72;;;4.05;;